Terminal Aerodrome Forecast
Issued by NWS Norman, OK

Home | Current Version | Previous Version | Text Only | Print | Product List | Glossary On
Versions: 1 2 3 4 5 6 7 8 9 10 11 12 13 14 15 16 17 18 19 20 21 22 23 24 25 26
495
FTUS44 KOUN 272335
TAFSPS
TAF
KSPS 272335Z 2800/2824 09006KT P6SM FEW250
     FM281100 10012KT P6SM BKN025
      TEMPO 2820/2824 4SM -TSRA BR OVC008CB=

USA.gov is the U.S. government's official web portal to all federal, state and local government web resources and services.